createdAt,value
2022-12-18T00:02:03.219Z,78.93
2022-12-18T00:07:08.545Z,107.78
2022-12-18T00:17:21.302Z,84.13
2022-12-18T00:22:26.709Z,68.03
2022-12-18T00:27:32.096Z,62.53
2022-12-18T00:32:37.915Z,91.40
2022-12-18T00:37:43.428Z,67.45
2022-12-18T00:43:00.236Z,75.35
2022-12-18T00:53:11.030Z,63.60
2022-12-18T00:58:18.260Z,78.60
2022-12-18T01:03:23.690Z,49.25
2022-12-18T01:08:30.195Z,100.53
2022-12-18T01:13:36.311Z,59.78
2022-12-18T01:18:42.005Z,65.15
2022-12-18T01:23:47.709Z,44.92
2022-12-18T01:28:53.703Z,41.83
2022-12-18T01:34:00.038Z,40.58
2022-12-18T01:39:09.134Z,41.15
2022-12-18T01:44:51.914Z,47.83
2022-12-18T01:49:59.050Z,26.45
2022-12-18T01:55:07.083Z,40.78
2022-12-18T02:00:21.041Z,35.60
2022-12-18T02:05:50.531Z,46.50
2022-12-18T02:11:21.626Z,62.85
2022-12-18T02:16:53.242Z,78.25
2022-12-18T02:22:36.790Z,28.67
2022-12-18T02:27:47.488Z,40.05
2022-12-18T02:32:55.014Z,51.38
2022-12-18T02:38:00.853Z,32.45
2022-12-18T02:43:14.304Z,31.27
2022-12-18T02:48:27.840Z,50.70
2022-12-18T02:53:51.751Z,34.40
2022-12-18T02:59:12.233Z,36.92
2022-12-18T03:04:51.120Z,31.65
2022-12-18T03:09:58.388Z,36.15
2022-12-18T03:15:32.550Z,71.18
2022-12-18T03:20:50.989Z,38.60
2022-12-18T03:26:13.389Z,53.08
2022-12-18T03:31:25.606Z,43.88
2022-12-18T03:36:32.746Z,33.00
2022-12-18T03:42:18.393Z,51.80
2022-12-18T03:47:54.621Z,40.58
2022-12-18T03:53:31.984Z,60.50
2022-12-18T03:58:40.614Z,57.88
2022-12-18T04:04:10.286Z,40.95
2022-12-18T04:09:17.703Z,47.83
2022-12-18T04:14:25.653Z,33.67
2022-12-18T04:19:36.430Z,39.90
2022-12-18T04:24:42.941Z,34.22
2022-12-18T04:29:58.366Z,38.42
2022-12-18T04:35:05.683Z,48.03
2022-12-18T04:40:12.936Z,39.20
2022-12-18T04:45:23.969Z,30.83
2022-12-18T04:50:29.612Z,31.25
2022-12-18T04:55:35.079Z,36.30
2022-12-18T05:00:41.029Z,48.28
2022-12-18T05:05:46.439Z,29.35
2022-12-18T05:10:51.851Z,27.65
2022-12-18T05:15:57.671Z,27.45
2022-12-18T05:21:03.699Z,40.00
2022-12-18T05:26:19.296Z,49.92
2022-12-18T05:31:24.735Z,46.95
2022-12-18T05:36:30.301Z,17.20
2022-12-18T05:41:35.790Z,17.33
2022-12-18T05:46:42.480Z,61.28
2022-12-18T05:51:47.898Z,32.42
2022-12-18T05:56:53.317Z,38.28
2022-12-18T06:01:58.840Z,21.58
2022-12-18T06:07:07.722Z,29.88
2022-12-18T06:12:13.224Z,45.72
2022-12-18T06:17:18.679Z,24.40
2022-12-18T06:22:24.489Z,27.80
2022-12-18T06:27:29.951Z,52.70
2022-12-18T06:32:35.526Z,37.80
2022-12-18T06:37:41.001Z,58.00
2022-12-18T06:42:46.162Z,24.40
2022-12-18T06:47:51.885Z,20.45
2022-12-18T06:52:57.503Z,26.85
2022-12-18T06:58:03.003Z,15.95
2022-12-18T07:03:08.788Z,26.42
2022-12-18T07:08:14.487Z,16.55
2022-12-18T07:13:19.839Z,16.30
2022-12-18T07:18:25.232Z,16.83
2022-12-18T07:23:30.793Z,19.70
2022-12-18T07:28:37.695Z,16.63
2022-12-18T07:33:44.375Z,14.82
2022-12-18T07:38:53.131Z,13.07
2022-12-18T07:43:58.543Z,12.93
2022-12-18T07:49:03.930Z,11.82
2022-12-18T07:54:09.316Z,13.68
2022-12-18T07:59:17.562Z,12.38
2022-12-18T08:04:23.027Z,11.20
2022-12-18T08:09:28.467Z,13.27
2022-12-18T08:14:33.955Z,14.70
2022-12-18T08:19:39.271Z,12.98
2022-12-18T08:24:44.737Z,13.38
2022-12-18T08:29:50.073Z,15.07
2022-12-18T08:34:55.902Z,13.95
2022-12-18T08:40:01.426Z,12.65
2022-12-18T08:45:08.316Z,13.20
2022-12-18T08:50:13.921Z,12.13
2022-12-18T08:55:19.421Z,12.20
2022-12-18T09:00:26.042Z,14.73
2022-12-18T09:05:32.452Z,14.05
2022-12-18T09:10:45.310Z,14.00
2022-12-18T09:15:53.413Z,14.80
2022-12-18T09:20:58.964Z,18.58
2022-12-18T09:26:04.525Z,17.83
2022-12-18T09:31:10.370Z,18.25
2022-12-18T09:36:19.397Z,18.17
2022-12-18T09:41:40.518Z,15.45
2022-12-18T09:46:54.074Z,20.92
2022-12-18T09:52:32.042Z,17.98
2022-12-18T09:57:48.743Z,17.15
2022-12-18T10:03:02.984Z,18.98
2022-12-18T10:08:40.041Z,18.45
2022-12-18T10:14:33.518Z,19.35
2022-12-18T10:19:51.503Z,16.05
2022-12-18T10:25:05.803Z,17.67
2022-12-18T10:30:18.857Z,19.05
2022-12-18T10:35:28.355Z,17.02
2022-12-18T10:40:35.022Z,16.10
2022-12-18T10:45:41.007Z,19.63
2022-12-18T10:56:22.944Z,12.85
2022-12-18T11:01:30.018Z,15.60
2022-12-18T11:06:35.259Z,15.55
2022-12-18T11:11:41.342Z,14.05
2022-12-18T11:17:23.648Z,13.13
2022-12-18T11:22:28.051Z,14.15
2022-12-18T11:27:34.156Z,14.32
2022-12-18T11:33:08.641Z,13.82
2022-12-18T11:38:28.563Z,12.57
2022-12-18T11:43:50.480Z,11.57
2022-12-18T11:49:41.338Z,11.57
2022-12-18T11:54:46.806Z,9.77
2022-12-18T12:00:06.125Z,13.18
2022-12-18T12:05:29.541Z,12.10
2022-12-18T12:11:09.093Z,13.57
2022-12-18T12:16:40.550Z,12.75
2022-12-18T12:22:00.700Z,11.65
2022-12-18T12:27:21.984Z,13.65
2022-12-18T12:32:49.630Z,14.50
2022-12-18T12:38:12.990Z,10.15
2022-12-18T12:43:49.612Z,11.32
2022-12-18T12:49:10.894Z,13.60
2022-12-18T12:54:25.707Z,12.20
2022-12-18T13:05:29.143Z,17.48
2022-12-18T13:10:38.035Z,16.55
2022-12-18T13:15:46.876Z,18.80
2022-12-18T13:21:03.522Z,18.85
2022-12-18T13:26:12.081Z,16.48
2022-12-18T13:31:17.581Z,18.40
2022-12-18T13:36:33.875Z,18.90
2022-12-18T13:41:39.418Z,24.67
2022-12-18T13:46:48.027Z,18.45
2022-12-18T13:51:56.845Z,16.00
2022-12-18T13:57:03.436Z,17.15
2022-12-18T14:02:41.221Z,14.32
2022-12-18T14:07:48.357Z,16.48
2022-12-18T14:13:03.212Z,16.45
2022-12-18T14:18:35.206Z,18.20
2022-12-18T14:23:44.463Z,19.25
2022-12-18T14:28:50.193Z,18.25
2022-12-18T14:33:55.112Z,17.55
2022-12-18T14:39:01.119Z,15.95
2022-12-18T14:44:08.962Z,13.25
2022-12-18T14:49:38.386Z,16.55
2022-12-18T14:54:49.679Z,18.10
2022-12-18T14:59:55.284Z,18.50
2022-12-18T15:05:12.999Z,13.85
2022-12-18T15:10:24.868Z,13.05
2022-12-18T15:15:41.073Z,14.60
2022-12-18T15:21:01.904Z,13.63
2022-12-18T15:31:15.096Z,10.43
2022-12-18T15:36:32.174Z,12.88
2022-12-18T15:41:38.297Z,8.50
2022-12-18T15:46:45.064Z,10.02
2022-12-18T15:52:03.740Z,11.23
2022-12-18T15:57:26.406Z,9.93
2022-12-18T16:02:32.611Z,11.05
2022-12-18T16:07:38.144Z,13.43
2022-12-18T16:12:44.394Z,15.50
2022-12-18T16:17:50.144Z,12.15
2022-12-18T16:22:56.143Z,11.32
2022-12-18T16:28:01.911Z,12.38
2022-12-18T16:33:07.604Z,10.90
2022-12-18T16:38:13.240Z,14.80
2022-12-18T16:43:17.390Z,11.38
2022-12-18T16:48:23.145Z,13.32
2022-12-18T16:53:28.565Z,12.85
2022-12-18T16:58:34.782Z,10.40
2022-12-18T17:03:41.345Z,12.73
2022-12-18T17:08:50.123Z,11.15
2022-12-18T17:13:56.028Z,12.05
2022-12-18T17:19:03.687Z,12.27
2022-12-18T17:24:09.601Z,13.30
2022-12-18T17:29:17.912Z,10.52
2022-12-18T17:34:24.931Z,9.57
2022-12-18T17:39:31.291Z,8.98
2022-12-18T17:44:38.154Z,8.93
2022-12-18T17:49:43.577Z,7.90
2022-12-18T17:54:48.989Z,7.88
2022-12-18T17:59:54.467Z,6.13
2022-12-18T18:05:00.885Z,6.30
2022-12-18T18:10:07.963Z,5.57
2022-12-18T18:15:13.642Z,6.28
2022-12-18T18:20:22.495Z,6.82
2022-12-18T18:25:30.447Z,7.25
2022-12-18T18:30:37.915Z,8.13
2022-12-18T18:35:54.737Z,6.65
2022-12-18T18:41:06.438Z,7.95
2022-12-18T18:46:14.258Z,7.50
2022-12-18T18:51:21.696Z,7.22
2022-12-18T18:56:56.120Z,7.00
2022-12-18T19:01:55.230Z,8.35
2022-12-18T19:07:00.638Z,6.45
2022-12-18T19:12:26.213Z,6.22
2022-12-18T19:17:31.822Z,6.13
2022-12-18T19:22:37.406Z,6.55
2022-12-18T19:27:42.734Z,5.07
2022-12-18T19:32:48.082Z,4.75
2022-12-18T19:37:53.602Z,5.82
2022-12-18T19:42:59.195Z,4.78
2022-12-18T19:48:07.982Z,5.28
2022-12-18T19:53:13.371Z,5.75
2022-12-18T19:58:18.871Z,5.50
2022-12-18T20:03:32.512Z,5.20
2022-12-18T20:08:39.342Z,5.13
2022-12-18T20:13:44.876Z,4.45
2022-12-18T20:18:50.614Z,4.20
2022-12-18T20:24:23.773Z,6.05
2022-12-18T20:29:29.378Z,3.95
2022-12-18T20:34:34.838Z,2.70
2022-12-18T20:39:40.697Z,3.22
2022-12-18T20:44:46.403Z,2.30
2022-12-18T20:49:51.759Z,2.55
2022-12-18T20:54:57.461Z,3.55
2022-12-18T21:00:05.174Z,2.80
2022-12-18T21:05:10.697Z,3.15
2022-12-18T21:10:16.078Z,3.65
2022-12-18T21:15:28.208Z,3.55
2022-12-18T21:20:36.872Z,3.15
2022-12-18T21:25:42.391Z,3.65
2022-12-18T21:30:47.837Z,3.45
2022-12-18T21:35:53.220Z,3.95
2022-12-18T21:40:58.891Z,2.80
2022-12-18T21:46:04.327Z,3.38
2022-12-18T21:51:10.367Z,2.80
2022-12-18T21:56:15.863Z,3.28
2022-12-18T22:01:23.455Z,3.13
2022-12-18T22:06:29.234Z,2.40
2022-12-18T22:11:34.706Z,4.55
2022-12-18T22:16:40.576Z,3.08
2022-12-18T22:21:49.241Z,3.10
2022-12-18T22:27:21.745Z,4.45
2022-12-18T22:32:30.635Z,4.15
2022-12-18T22:37:36.775Z,4.43
2022-12-18T22:42:42.482Z,5.10
2022-12-18T22:47:47.971Z,4.38
2022-12-18T22:52:53.363Z,5.25
2022-12-18T22:57:59.071Z,4.53
2022-12-18T23:03:04.963Z,4.85
2022-12-18T23:08:13.701Z,4.88
2022-12-18T23:13:19.777Z,4.40
2022-12-18T23:18:24.977Z,5.00
2022-12-18T23:23:30.257Z,5.00
2022-12-18T23:28:37.820Z,4.65
2022-12-18T23:33:44.425Z,5.18
2022-12-18T23:38:52.061Z,5.05
2022-12-18T23:43:58.104Z,5.03
2022-12-18T23:49:06.613Z,4.57
2022-12-18T23:54:12.061Z,5.32
2022-12-18T23:59:20.279Z,4.65
